sensor_id;sensor_type;location;lat;lon;timestamp;P1;durP1;ratioP1;P2;durP2;ratioP2
51216;SDS011;37283;49.760;8.648;2022-08-19T00:01:28;15.20;;;13.70;;
51216;SDS011;37283;49.760;8.648;2022-08-19T00:03:57;14.75;;;13.25;;
51216;SDS011;37283;49.760;8.648;2022-08-19T00:06:25;16.52;;;14.80;;
51216;SDS011;37283;49.760;8.648;2022-08-19T00:08:52;16.23;;;14.57;;
51216;SDS011;37283;49.760;8.648;2022-08-19T00:11:19;15.65;;;14.05;;
51216;SDS011;37283;49.760;8.648;2022-08-19T00:13:51;16.33;;;13.75;;
51216;SDS011;37283;49.760;8.648;2022-08-19T00:16:18;14.93;;;13.45;;
51216;SDS011;37283;49.760;8.648;2022-08-19T00:18:51;16.05;;;14.45;;
51216;SDS011;37283;49.760;8.648;2022-08-19T00:21:18;17.83;;;13.75;;
51216;SDS011;37283;49.760;8.648;2022-08-19T00:23:44;14.57;;;13.18;;
51216;SDS011;37283;49.760;8.648;2022-08-19T00:26:11;15.15;;;13.70;;
51216;SDS011;37283;49.760;8.648;2022-08-19T00:28:37;14.18;;;12.75;;
51216;SDS011;37283;49.760;8.648;2022-08-19T00:31:04;15.68;;;14.07;;
51216;SDS011;37283;49.760;8.648;2022-08-19T00:33:32;16.38;;;14.02;;
51216;SDS011;37283;49.760;8.648;2022-08-19T00:36:03;16.10;;;14.40;;
51216;SDS011;37283;49.760;8.648;2022-08-19T00:38:33;15.20;;;13.80;;
51216;SDS011;37283;49.760;8.648;2022-08-19T00:41:03;15.98;;;14.38;;
51216;SDS011;37283;49.760;8.648;2022-08-19T00:43:31;15.15;;;13.55;;
51216;SDS011;37283;49.760;8.648;2022-08-19T00:45:58;15.60;;;14.05;;
51216;SDS011;37283;49.760;8.648;2022-08-19T00:48:25;14.93;;;13.43;;
51216;SDS011;37283;49.760;8.648;2022-08-19T00:50:52;15.27;;;13.68;;
51216;SDS011;37283;49.760;8.648;2022-08-19T00:53:21;15.73;;;13.98;;
51216;SDS011;37283;49.760;8.648;2022-08-19T00:55:50;16.10;;;14.30;;
51216;SDS011;37283;49.760;8.648;2022-08-19T00:58:18;17.40;;;14.52;;
51216;SDS011;37283;49.760;8.648;2022-08-19T01:00:46;15.00;;;13.50;;
51216;SDS011;37283;49.760;8.648;2022-08-19T01:03:15;15.15;;;13.65;;
51216;SDS011;37283;49.760;8.648;2022-08-19T01:05:44;15.60;;;14.10;;
51216;SDS011;37283;49.760;8.648;2022-08-19T01:08:11;20.05;;;14.40;;
51216;SDS011;37283;49.760;8.648;2022-08-19T01:10:41;15.77;;;14.23;;
51216;SDS011;37283;49.760;8.648;2022-08-19T01:13:10;15.80;;;14.20;;
51216;SDS011;37283;49.760;8.648;2022-08-19T01:15:42;15.48;;;13.98;;
51216;SDS011;37283;49.760;8.648;2022-08-19T01:18:12;15.40;;;13.90;;
51216;SDS011;37283;49.760;8.648;2022-08-19T01:20:41;14.55;;;13.15;;
51216;SDS011;37283;49.760;8.648;2022-08-19T01:23:08;15.88;;;13.13;;
51216;SDS011;37283;49.760;8.648;2022-08-19T01:25:38;15.73;;;14.23;;
51216;SDS011;37283;49.760;8.648;2022-08-19T01:28:07;16.10;;;14.50;;
51216;SDS011;37283;49.760;8.648;2022-08-19T01:30:36;15.85;;;14.27;;
51216;SDS011;37283;49.760;8.648;2022-08-19T01:33:03;16.35;;;14.63;;
51216;SDS011;37283;49.760;8.648;2022-08-19T01:35:32;15.48;;;13.98;;
51216;SDS011;37283;49.760;8.648;2022-08-19T01:38:00;15.98;;;14.38;;
51216;SDS011;37283;49.760;8.648;2022-08-19T01:40:30;15.30;;;13.88;;
51216;SDS011;37283;49.760;8.648;2022-08-19T01:42:57;16.33;;;14.82;;
51216;SDS011;37283;49.760;8.648;2022-08-19T01:45:25;15.30;;;13.73;;
51216;SDS011;37283;49.760;8.648;2022-08-19T01:47:52;15.83;;;14.33;;
51216;SDS011;37283;49.760;8.648;2022-08-19T01:50:28;15.05;;;13.60;;
51216;SDS011;37283;49.760;8.648;2022-08-19T01:52:55;14.55;;;13.15;;
51216;SDS011;37283;49.760;8.648;2022-08-19T01:55:31;14.95;;;13.43;;
51216;SDS011;37283;49.760;8.648;2022-08-19T01:57:59;15.32;;;13.80;;
51216;SDS011;37283;49.760;8.648;2022-08-19T02:00:28;16.38;;;14.77;;
51216;SDS011;37283;49.760;8.648;2022-08-19T02:02:56;16.45;;;14.75;;
51216;SDS011;37283;49.760;8.648;2022-08-19T02:05:23;15.90;;;14.20;;
51216;SDS011;37283;49.760;8.648;2022-08-19T02:07:49;15.20;;;13.80;;
51216;SDS011;37283;49.760;8.648;2022-08-19T02:10:18;15.45;;;14.02;;
51216;SDS011;37283;49.760;8.648;2022-08-19T02:12:47;16.30;;;14.60;;
51216;SDS011;37283;49.760;8.648;2022-08-19T02:15:15;15.95;;;14.32;;
51216;SDS011;37283;49.760;8.648;2022-08-19T02:17:43;15.50;;;13.90;;
51216;SDS011;37283;49.760;8.648;2022-08-19T02:20:09;16.15;;;14.35;;
51216;SDS011;37283;49.760;8.648;2022-08-19T02:22:36;15.70;;;13.68;;
51216;SDS011;37283;49.760;8.648;2022-08-19T02:25:03;15.70;;;14.20;;
51216;SDS011;37283;49.760;8.648;2022-08-19T02:27:31;15.82;;;14.25;;
51216;SDS011;37283;49.760;8.648;2022-08-19T02:29:58;14.93;;;13.43;;
51216;SDS011;37283;49.760;8.648;2022-08-19T02:32:24;17.33;;;13.82;;
51216;SDS011;37283;49.760;8.648;2022-08-19T02:34:51;15.13;;;13.00;;
51216;SDS011;37283;49.760;8.648;2022-08-19T02:37:17;15.48;;;13.98;;
51216;SDS011;37283;49.760;8.648;2022-08-19T02:40:03;14.52;;;13.05;;
51216;SDS011;37283;49.760;8.648;2022-08-19T02:42:37;15.90;;;13.63;;
51216;SDS011;37283;49.760;8.648;2022-08-19T02:45:04;14.45;;;12.95;;
51216;SDS011;37283;49.760;8.648;2022-08-19T02:47:32;15.85;;;14.20;;
51216;SDS011;37283;49.760;8.648;2022-08-19T02:49:58;15.13;;;13.63;;
51216;SDS011;37283;49.760;8.648;2022-08-19T02:52:26;14.73;;;13.25;;
51216;SDS011;37283;49.760;8.648;2022-08-19T02:54:53;15.75;;;14.10;;
51216;SDS011;37283;49.760;8.648;2022-08-19T02:57:23;14.35;;;12.88;;
51216;SDS011;37283;49.760;8.648;2022-08-19T02:59:50;14.95;;;13.50;;
51216;SDS011;37283;49.760;8.648;2022-08-19T03:02:16;15.02;;;13.50;;
51216;SDS011;37283;49.760;8.648;2022-08-19T03:04:43;14.27;;;12.77;;
51216;SDS011;37283;49.760;8.648;2022-08-19T03:07:12;14.00;;;12.70;;
51216;SDS011;37283;49.760;8.648;2022-08-19T03:09:39;14.13;;;12.68;;
51216;SDS011;37283;49.760;8.648;2022-08-19T03:12:06;15.13;;;13.63;;
51216;SDS011;37283;49.760;8.648;2022-08-19T03:14:33;13.75;;;12.45;;
51216;SDS011;37283;49.760;8.648;2022-08-19T03:17:00;13.98;;;12.57;;
51216;SDS011;37283;49.760;8.648;2022-08-19T03:19:26;14.52;;;13.10;;
51216;SDS011;37283;49.760;8.648;2022-08-19T03:21:53;14.80;;;13.30;;
51216;SDS011;37283;49.760;8.648;2022-08-19T03:24:21;13.27;;;11.88;;
51216;SDS011;37283;49.760;8.648;2022-08-19T03:26:48;14.65;;;13.15;;
51216;SDS011;37283;49.760;8.648;2022-08-19T03:29:17;13.90;;;12.50;;
51216;SDS011;37283;49.760;8.648;2022-08-19T03:31:56;15.25;;;13.65;;
51216;SDS011;37283;49.760;8.648;2022-08-19T03:34:27;14.60;;;13.13;;
51216;SDS011;37283;49.760;8.648;2022-08-19T03:36:56;14.32;;;12.93;;
51216;SDS011;37283;49.760;8.648;2022-08-19T03:39:24;16.50;;;13.88;;
51216;SDS011;37283;49.760;8.648;2022-08-19T03:41:52;14.40;;;12.90;;
51216;SDS011;37283;49.760;8.648;2022-08-19T03:44:39;13.93;;;12.52;;
51216;SDS011;37283;49.760;8.648;2022-08-19T03:47:06;13.95;;;12.50;;
51216;SDS011;37283;49.760;8.648;2022-08-19T03:49:32;15.10;;;13.60;;
51216;SDS011;37283;49.760;8.648;2022-08-19T03:54:31;14.68;;;12.82;;
51216;SDS011;37283;49.760;8.648;2022-08-19T03:56:57;15.32;;;13.75;;
51216;SDS011;37283;49.760;8.648;2022-08-19T03:59:25;15.07;;;13.52;;
51216;SDS011;37283;49.760;8.648;2022-08-19T04:01:56;14.60;;;13.20;;
51216;SDS011;37283;49.760;8.648;2022-08-19T04:04:23;16.90;;;12.73;;
51216;SDS011;37283;49.760;8.648;2022-08-19T04:06:54;14.93;;;13.43;;
51216;SDS011;37283;49.760;8.648;2022-08-19T04:09:21;15.30;;;13.32;;
51216;SDS011;37283;49.760;8.648;2022-08-19T04:11:51;14.85;;;13.43;;
51216;SDS011;37283;49.760;8.648;2022-08-19T04:14:23;14.80;;;13.40;;
51216;SDS011;37283;49.760;8.648;2022-08-19T04:16:52;15.48;;;14.02;;
51216;SDS011;37283;49.760;8.648;2022-08-19T04:19:19;14.82;;;13.05;;
51216;SDS011;37283;49.760;8.648;2022-08-19T04:21:49;15.00;;;13.38;;
51216;SDS011;37283;49.760;8.648;2022-08-19T04:24:17;16.40;;;14.75;;
51216;SDS011;37283;49.760;8.648;2022-08-19T04:26:44;15.57;;;14.00;;
51216;SDS011;37283;49.760;8.648;2022-08-19T04:29:13;15.70;;;13.95;;
51216;SDS011;37283;49.760;8.648;2022-08-19T04:31:42;16.80;;;14.38;;
51216;SDS011;37283;49.760;8.648;2022-08-19T04:34:11;15.73;;;14.10;;
51216;SDS011;37283;49.760;8.648;2022-08-19T04:36:39;16.25;;;14.55;;
51216;SDS011;37283;49.760;8.648;2022-08-19T04:39:08;16.35;;;14.48;;
51216;SDS011;37283;49.760;8.648;2022-08-19T04:41:39;15.65;;;14.15;;
51216;SDS011;37283;49.760;8.648;2022-08-19T04:44:25;15.73;;;14.18;;
51216;SDS011;37283;49.760;8.648;2022-08-19T04:46:52;17.23;;;15.07;;
51216;SDS011;37283;49.760;8.648;2022-08-19T04:49:19;15.63;;;14.02;;
51216;SDS011;37283;49.760;8.648;2022-08-19T04:51:48;15.77;;;14.27;;
51216;SDS011;37283;49.760;8.648;2022-08-19T04:54:16;17.27;;;15.57;;
51216;SDS011;37283;49.760;8.648;2022-08-19T04:57:02;16.30;;;14.63;;
51216;SDS011;37283;49.760;8.648;2022-08-19T04:59:32;16.65;;;14.88;;
51216;SDS011;37283;49.760;8.648;2022-08-19T05:01:59;16.98;;;15.23;;
51216;SDS011;37283;49.760;8.648;2022-08-19T05:04:26;15.68;;;14.10;;
51216;SDS011;37283;49.760;8.648;2022-08-19T05:06:52;16.70;;;15.00;;
51216;SDS011;37283;49.760;8.648;2022-08-19T05:09:26;16.02;;;14.35;;
51216;SDS011;37283;49.760;8.648;2022-08-19T05:11:53;17.05;;;15.00;;
51216;SDS011;37283;49.760;8.648;2022-08-19T05:14:19;15.15;;;13.55;;
51216;SDS011;37283;49.760;8.648;2022-08-19T05:16:47;16.05;;;14.45;;
51216;SDS011;37283;49.760;8.648;2022-08-19T05:19:13;16.48;;;14.77;;
51216;SDS011;37283;49.760;8.648;2022-08-19T05:21:59;16.52;;;14.90;;
51216;SDS011;37283;49.760;8.648;2022-08-19T05:24:44;15.95;;;14.45;;
51216;SDS011;37283;49.760;8.648;2022-08-19T05:27:31;16.83;;;15.13;;
51216;SDS011;37283;49.760;8.648;2022-08-19T05:29:58;16.35;;;14.65;;
51216;SDS011;37283;49.760;8.648;2022-08-19T05:32:25;16.60;;;14.70;;
51216;SDS011;37283;49.760;8.648;2022-08-19T05:34:52;17.80;;;15.85;;
51216;SDS011;37283;49.760;8.648;2022-08-19T05:37:19;16.50;;;14.80;;
51216;SDS011;37283;49.760;8.648;2022-08-19T05:39:45;16.35;;;14.73;;
51216;SDS011;37283;49.760;8.648;2022-08-19T05:42:16;17.05;;;15.10;;
51216;SDS011;37283;49.760;8.648;2022-08-19T05:44:43;16.52;;;14.88;;
51216;SDS011;37283;49.760;8.648;2022-08-19T05:47:11;17.20;;;15.35;;
51216;SDS011;37283;49.760;8.648;2022-08-19T05:49:38;17.63;;;15.93;;
51216;SDS011;37283;49.760;8.648;2022-08-19T05:52:05;15.45;;;13.93;;
51216;SDS011;37283;49.760;8.648;2022-08-19T05:54:34;17.30;;;14.30;;
51216;SDS011;37283;49.760;8.648;2022-08-19T05:57:06;15.63;;;14.05;;
51216;SDS011;37283;49.760;8.648;2022-08-19T05:59:34;15.70;;;14.13;;
51216;SDS011;37283;49.760;8.648;2022-08-19T06:02:04;15.85;;;14.25;;
51216;SDS011;37283;49.760;8.648;2022-08-19T06:04:32;16.05;;;14.48;;
51216;SDS011;37283;49.760;8.648;2022-08-19T06:06:59;16.02;;;14.43;;
51216;SDS011;37283;49.760;8.648;2022-08-19T06:09:38;16.37;;;14.70;;
51216;SDS011;37283;49.760;8.648;2022-08-19T06:12:04;17.25;;;15.00;;
51216;SDS011;37283;49.760;8.648;2022-08-19T06:14:32;15.15;;;13.73;;
51216;SDS011;37283;49.760;8.648;2022-08-19T06:17:05;16.98;;;14.80;;
51216;SDS011;37283;49.760;8.648;2022-08-19T06:19:32;17.85;;;14.43;;
51216;SDS011;37283;49.760;8.648;2022-08-19T06:22:05;18.38;;;15.45;;
51216;SDS011;37283;49.760;8.648;2022-08-19T06:24:32;16.67;;;14.70;;
51216;SDS011;37283;49.760;8.648;2022-08-19T06:26:59;17.02;;;15.30;;
51216;SDS011;37283;49.760;8.648;2022-08-19T06:29:27;18.27;;;16.25;;
51216;SDS011;37283;49.760;8.648;2022-08-19T06:31:56;18.13;;;16.38;;
51216;SDS011;37283;49.760;8.648;2022-08-19T06:34:24;17.45;;;15.68;;
51216;SDS011;37283;49.760;8.648;2022-08-19T06:36:51;16.55;;;14.85;;
51216;SDS011;37283;49.760;8.648;2022-08-19T06:39:22;16.40;;;14.65;;
51216;SDS011;37283;49.760;8.648;2022-08-19T06:41:52;16.67;;;14.07;;
51216;SDS011;37283;49.760;8.648;2022-08-19T06:44:24;15.13;;;13.63;;
51216;SDS011;37283;49.760;8.648;2022-08-19T06:46:54;18.27;;;15.30;;
51216;SDS011;37283;49.760;8.648;2022-08-19T06:49:21;17.73;;;15.82;;
51216;SDS011;37283;49.760;8.648;2022-08-19T06:51:49;16.20;;;14.50;;
51216;SDS011;37283;49.760;8.648;2022-08-19T06:54:17;16.05;;;14.45;;
51216;SDS011;37283;49.760;8.648;2022-08-19T06:56:45;18.52;;;13.48;;
51216;SDS011;37283;49.760;8.648;2022-08-19T06:59:13;14.65;;;13.25;;
51216;SDS011;37283;49.760;8.648;2022-08-19T07:01:44;16.20;;;14.60;;
51216;SDS011;37283;49.760;8.648;2022-08-19T07:04:17;14.93;;;13.50;;
51216;SDS011;37283;49.760;8.648;2022-08-19T07:06:48;15.40;;;13.50;;
51216;SDS011;37283;49.760;8.648;2022-08-19T07:09:20;15.95;;;13.93;;
51216;SDS011;37283;49.760;8.648;2022-08-19T07:11:48;17.05;;;13.80;;
51216;SDS011;37283;49.760;8.648;2022-08-19T07:14:17;15.00;;;13.27;;
51216;SDS011;37283;49.760;8.648;2022-08-19T07:16:46;15.45;;;12.70;;
51216;SDS011;37283;49.760;8.648;2022-08-19T07:21:44;14.07;;;12.55;;
51216;SDS011;37283;49.760;8.648;2022-08-19T07:24:12;14.18;;;11.77;;
51216;SDS011;37283;49.760;8.648;2022-08-19T07:26:40;17.45;;;13.35;;
51216;SDS011;37283;49.760;8.648;2022-08-19T07:29:08;16.05;;;12.40;;
51216;SDS011;37283;49.760;8.648;2022-08-19T07:31:35;14.30;;;11.55;;
51216;SDS011;37283;49.760;8.648;2022-08-19T07:34:04;12.18;;;10.98;;
51216;SDS011;37283;49.760;8.648;2022-08-19T07:36:36;15.02;;;11.35;;
51216;SDS011;37283;49.760;8.648;2022-08-19T07:39:07;15.77;;;12.50;;
51216;SDS011;37283;49.760;8.648;2022-08-19T07:41:35;14.32;;;12.18;;
51216;SDS011;37283;49.760;8.648;2022-08-19T07:44:03;15.35;;;12.93;;
51216;SDS011;37283;49.760;8.648;2022-08-19T07:46:31;14.32;;;12.85;;
51216;SDS011;37283;49.760;8.648;2022-08-19T07:48:59;14.48;;;12.02;;
51216;SDS011;37283;49.760;8.648;2022-08-19T07:51:26;12.15;;;10.43;;
51216;SDS011;37283;49.760;8.648;2022-08-19T07:54:02;13.02;;;10.57;;
51216;SDS011;37283;49.760;8.648;2022-08-19T07:56:29;11.15;;;10.00;;
51216;SDS011;37283;49.760;8.648;2022-08-19T07:58:55;12.10;;;10.85;;
51216;SDS011;37283;49.760;8.648;2022-08-19T08:01:27;12.50;;;9.38;;
51216;SDS011;37283;49.760;8.648;2022-08-19T08:03:55;11.50;;;8.90;;
51216;SDS011;37283;49.760;8.648;2022-08-19T08:06:41;9.45;;;8.02;;
51216;SDS011;37283;49.760;8.648;2022-08-19T08:09:27;9.27;;;7.35;;
51216;SDS011;37283;49.760;8.648;2022-08-19T08:12:02;9.93;;;7.70;;
51216;SDS011;37283;49.760;8.648;2022-08-19T08:14:53;10.38;;;6.10;;
51216;SDS011;37283;49.760;8.648;2022-08-19T08:17:22;6.95;;;5.53;;
51216;SDS011;37283;49.760;8.648;2022-08-19T08:20:11;7.97;;;5.88;;
51216;SDS011;37283;49.760;8.648;2022-08-19T08:22:41;8.85;;;6.20;;
51216;SDS011;37283;49.760;8.648;2022-08-19T08:25:28;10.38;;;6.85;;
51216;SDS011;37283;49.760;8.648;2022-08-19T08:27:57;8.38;;;5.97;;
51216;SDS011;37283;49.760;8.648;2022-08-19T08:30:26;6.57;;;5.32;;
51216;SDS011;37283;49.760;8.648;2022-08-19T08:32:58;9.35;;;5.93;;
51216;SDS011;37283;49.760;8.648;2022-08-19T08:35:24;7.40;;;5.80;;
51216;SDS011;37283;49.760;8.648;2022-08-19T08:37:52;7.70;;;5.28;;
51216;SDS011;37283;49.760;8.648;2022-08-19T08:40:25;6.28;;;5.32;;
51216;SDS011;37283;49.760;8.648;2022-08-19T08:42:55;8.75;;;6.45;;
51216;SDS011;37283;49.760;8.648;2022-08-19T08:48:13;8.05;;;6.07;;
51216;SDS011;37283;49.760;8.648;2022-08-19T08:50:49;6.07;;;5.28;;
51216;SDS011;37283;49.760;8.648;2022-08-19T08:55:58;6.18;;;5.57;;
51216;SDS011;37283;49.760;8.648;2022-08-19T08:58:31;9.73;;;6.20;;
51216;SDS011;37283;49.760;8.648;2022-08-19T09:01:09;10.68;;;6.22;;
51216;SDS011;37283;49.760;8.648;2022-08-19T09:03:37;6.68;;;5.93;;
51216;SDS011;37283;49.760;8.648;2022-08-19T09:08:57;8.05;;;5.57;;
51216;SDS011;37283;49.760;8.648;2022-08-19T09:14:16;6.18;;;4.60;;
51216;SDS011;37283;49.760;8.648;2022-08-19T09:17:09;5.82;;;5.30;;
51216;SDS011;37283;49.760;8.648;2022-08-19T09:19:46;7.18;;;4.55;;
51216;SDS011;37283;49.760;8.648;2022-08-19T09:22:16;5.00;;;4.00;;
51216;SDS011;37283;49.760;8.648;2022-08-19T09:24:51;5.30;;;4.18;;
51216;SDS011;37283;49.760;8.648;2022-08-19T09:27:21;9.13;;;4.00;;
51216;SDS011;37283;49.760;8.648;2022-08-19T09:30:09;4.63;;;3.72;;
51216;SDS011;37283;49.760;8.648;2022-08-19T09:32:41;7.63;;;3.80;;
51216;SDS011;37283;49.760;8.648;2022-08-19T09:35:09;5.05;;;3.67;;
51216;SDS011;37283;49.760;8.648;2022-08-19T09:37:37;5.57;;;4.28;;
51216;SDS011;37283;49.760;8.648;2022-08-19T09:40:05;5.18;;;4.10;;
51216;SDS011;37283;49.760;8.648;2022-08-19T09:42:34;4.97;;;3.55;;
51216;SDS011;37283;49.760;8.648;2022-08-19T09:45:01;7.68;;;3.90;;
51216;SDS011;37283;49.760;8.648;2022-08-19T09:47:35;5.65;;;4.13;;
51216;SDS011;37283;49.760;8.648;2022-08-19T09:50:07;6.88;;;4.95;;
51216;SDS011;37283;49.760;8.648;2022-08-19T09:52:35;4.80;;;4.20;;
51216;SDS011;37283;49.760;8.648;2022-08-19T09:55:07;6.55;;;4.40;;
51216;SDS011;37283;49.760;8.648;2022-08-19T09:57:34;6.65;;;4.50;;
51216;SDS011;37283;49.760;8.648;2022-08-19T10:00:02;4.40;;;4.00;;
51216;SDS011;37283;49.760;8.648;2022-08-19T10:02:33;5.88;;;4.05;;
51216;SDS011;37283;49.760;8.648;2022-08-19T10:04:59;4.88;;;4.28;;
51216;SDS011;37283;49.760;8.648;2022-08-19T10:07:52;5.35;;;4.07;;
51216;SDS011;37283;49.760;8.648;2022-08-19T10:10:19;4.70;;;4.10;;
51216;SDS011;37283;49.760;8.648;2022-08-19T10:12:45;5.55;;;4.50;;
51216;SDS011;37283;49.760;8.648;2022-08-19T10:15:14;4.93;;;4.33;;
51216;SDS011;37283;49.760;8.648;2022-08-19T10:17:41;7.07;;;4.72;;
51216;SDS011;37283;49.760;8.648;2022-08-19T10:20:13;6.78;;;4.00;;
51216;SDS011;37283;49.760;8.648;2022-08-19T10:22:40;5.93;;;4.72;;
51216;SDS011;37283;49.760;8.648;2022-08-19T10:25:07;6.15;;;4.28;;
51216;SDS011;37283;49.760;8.648;2022-08-19T10:27:34;5.82;;;4.65;;
51216;SDS011;37283;49.760;8.648;2022-08-19T10:30:00;6.28;;;4.68;;
51216;SDS011;37283;49.760;8.648;2022-08-19T10:32:27;7.18;;;4.05;;
51216;SDS011;37283;49.760;8.648;2022-08-19T10:34:59;6.53;;;4.47;;
51216;SDS011;37283;49.760;8.648;2022-08-19T10:37:26;6.32;;;5.13;;
51216;SDS011;37283;49.760;8.648;2022-08-19T10:39:56;6.70;;;4.88;;
51216;SDS011;37283;49.760;8.648;2022-08-19T10:42:23;5.10;;;4.60;;
51216;SDS011;37283;49.760;8.648;2022-08-19T10:44:49;4.82;;;4.30;;
51216;SDS011;37283;49.760;8.648;2022-08-19T10:47:17;6.80;;;5.30;;
51216;SDS011;37283;49.760;8.648;2022-08-19T10:49:51;6.35;;;5.30;;
51216;SDS011;37283;49.760;8.648;2022-08-19T10:52:38;9.07;;;5.65;;
51216;SDS011;37283;49.760;8.648;2022-08-19T10:55:15;7.30;;;5.32;;
51216;SDS011;37283;49.760;8.648;2022-08-19T10:58:09;9.38;;;5.90;;
51216;SDS011;37283;49.760;8.648;2022-08-19T11:00:37;6.97;;;5.72;;
51216;SDS011;37283;49.760;8.648;2022-08-19T11:03:03;7.93;;;5.45;;
51216;SDS011;37283;49.760;8.648;2022-08-19T11:05:30;7.18;;;5.68;;
51216;SDS011;37283;49.760;8.648;2022-08-19T11:08:05;6.80;;;6.10;;
51216;SDS011;37283;49.760;8.648;2022-08-19T11:10:48;7.90;;;5.93;;
51216;SDS011;37283;49.760;8.648;2022-08-19T11:13:15;7.65;;;5.47;;
51216;SDS011;37283;49.760;8.648;2022-08-19T11:15:42;9.90;;;5.20;;
51216;SDS011;37283;49.760;8.648;2022-08-19T11:18:09;6.80;;;5.57;;
51216;SDS011;37283;49.760;8.648;2022-08-19T11:20:38;6.60;;;5.38;;
51216;SDS011;37283;49.760;8.648;2022-08-19T11:23:05;6.97;;;6.20;;
51216;SDS011;37283;49.760;8.648;2022-08-19T11:25:32;8.63;;;6.32;;
51216;SDS011;37283;49.760;8.648;2022-08-19T11:27:59;8.00;;;6.32;;
51216;SDS011;37283;49.760;8.648;2022-08-19T11:30:25;8.80;;;6.43;;
51216;SDS011;37283;49.760;8.648;2022-08-19T11:32:53;8.03;;;6.27;;
51216;SDS011;37283;49.760;8.648;2022-08-19T11:35:20;7.93;;;6.82;;
51216;SDS011;37283;49.760;8.648;2022-08-19T11:40:15;7.20;;;6.43;;
51216;SDS011;37283;49.760;8.648;2022-08-19T11:42:42;8.73;;;6.80;;
51216;SDS011;37283;49.760;8.648;2022-08-19T11:45:26;8.63;;;7.75;;
51216;SDS011;37283;49.760;8.648;2022-08-19T11:47:54;7.70;;;6.72;;
51216;SDS011;37283;49.760;8.648;2022-08-19T11:50:21;7.45;;;6.65;;
51216;SDS011;37283;49.760;8.648;2022-08-19T11:52:49;7.82;;;7.00;;
51216;SDS011;37283;49.760;8.648;2022-08-19T11:55:15;9.15;;;7.72;;
51216;SDS011;37283;49.760;8.648;2022-08-19T11:57:42;7.78;;;7.05;;
51216;SDS011;37283;49.760;8.648;2022-08-19T12:00:09;8.32;;;7.20;;
51216;SDS011;37283;49.760;8.648;2022-08-19T12:02:39;7.50;;;6.80;;
51216;SDS011;37283;49.760;8.648;2022-08-19T12:05:06;6.80;;;6.20;;
51216;SDS011;37283;49.760;8.648;2022-08-19T12:07:37;7.55;;;6.80;;
51216;SDS011;37283;49.760;8.648;2022-08-19T12:10:04;10.73;;;7.28;;
51216;SDS011;37283;49.760;8.648;2022-08-19T12:12:31;7.78;;;7.00;;
51216;SDS011;37283;49.760;8.648;2022-08-19T12:14:57;7.43;;;6.72;;
51216;SDS011;37283;49.760;8.648;2022-08-19T12:17:27;7.72;;;6.97;;
51216;SDS011;37283;49.760;8.648;2022-08-19T12:19:53;8.77;;;7.13;;
51216;SDS011;37283;49.760;8.648;2022-08-19T12:22:20;7.82;;;7.13;;
51216;SDS011;37283;49.760;8.648;2022-08-19T12:24:47;7.32;;;6.65;;
51216;SDS011;37283;49.760;8.648;2022-08-19T12:27:17;7.50;;;6.80;;
51216;SDS011;37283;49.760;8.648;2022-08-19T12:30:04;10.35;;;7.40;;
51216;SDS011;37283;49.760;8.648;2022-08-19T12:32:31;7.40;;;6.78;;
51216;SDS011;37283;49.760;8.648;2022-08-19T12:34:58;10.20;;;7.13;;
51216;SDS011;37283;49.760;8.648;2022-08-19T12:37:25;9.13;;;7.20;;
51216;SDS011;37283;49.760;8.648;2022-08-19T12:39:51;7.35;;;6.75;;
51216;SDS011;37283;49.760;8.648;2022-08-19T12:42:18;8.18;;;6.47;;
51216;SDS011;37283;49.760;8.648;2022-08-19T12:44:44;8.75;;;6.05;;
51216;SDS011;37283;49.760;8.648;2022-08-19T12:47:11;7.90;;;5.93;;
51216;SDS011;37283;49.760;8.648;2022-08-19T12:49:40;7.10;;;6.15;;
51216;SDS011;37283;49.760;8.648;2022-08-19T12:52:20;7.32;;;6.10;;
51216;SDS011;37283;49.760;8.648;2022-08-19T12:54:49;6.20;;;5.30;;
51216;SDS011;37283;49.760;8.648;2022-08-19T12:57:20;5.95;;;4.93;;
51216;SDS011;37283;49.760;8.648;2022-08-19T12:59:51;7.93;;;4.60;;
51216;SDS011;37283;49.760;8.648;2022-08-19T13:02:19;5.85;;;4.20;;
51216;SDS011;37283;49.760;8.648;2022-08-19T13:04:46;4.78;;;4.15;;
51216;SDS011;37283;49.760;8.648;2022-08-19T13:07:12;4.90;;;4.30;;
51216;SDS011;37283;49.760;8.648;2022-08-19T13:09:39;9.80;;;4.50;;
51216;SDS011;37283;49.760;8.648;2022-08-19T13:12:08;4.80;;;4.28;;
51216;SDS011;37283;49.760;8.648;2022-08-19T13:14:39;5.75;;;4.15;;
51216;SDS011;37283;49.760;8.648;2022-08-19T13:17:07;5.20;;;4.30;;
51216;SDS011;37283;49.760;8.648;2022-08-19T13:19:35;4.28;;;3.88;;
51216;SDS011;37283;49.760;8.648;2022-08-19T13:22:02;5.18;;;3.60;;
51216;SDS011;37283;49.760;8.648;2022-08-19T13:24:29;6.05;;;3.65;;
51216;SDS011;37283;49.760;8.648;2022-08-19T13:26:59;3.80;;;3.22;;
51216;SDS011;37283;49.760;8.648;2022-08-19T13:29:26;4.47;;;3.58;;
51216;SDS011;37283;49.760;8.648;2022-08-19T13:32:11;4.43;;;3.50;;
51216;SDS011;37283;49.760;8.648;2022-08-19T13:34:57;4.30;;;3.58;;
51216;SDS011;37283;49.760;8.648;2022-08-19T13:37:23;3.63;;;3.25;;
51216;SDS011;37283;49.760;8.648;2022-08-19T13:40:22;3.65;;;3.10;;
51216;SDS011;37283;49.760;8.648;2022-08-19T13:42:51;3.05;;;2.67;;
51216;SDS011;37283;49.760;8.648;2022-08-19T13:45:19;3.50;;;2.83;;
51216;SDS011;37283;49.760;8.648;2022-08-19T13:47:49;3.30;;;3.00;;
51216;SDS011;37283;49.760;8.648;2022-08-19T13:50:24;5.63;;;3.30;;
51216;SDS011;37283;49.760;8.648;2022-08-19T13:52:55;4.18;;;3.00;;
51216;SDS011;37283;49.760;8.648;2022-08-19T13:55:22;3.92;;;3.05;;
51216;SDS011;37283;49.760;8.648;2022-08-19T13:58:00;3.20;;;2.90;;
51216;SDS011;37283;49.760;8.648;2022-08-19T14:00:31;3.90;;;3.10;;
51216;SDS011;37283;49.760;8.648;2022-08-19T14:02:59;4.47;;;2.72;;
51216;SDS011;37283;49.760;8.648;2022-08-19T14:05:26;3.33;;;2.80;;
51216;SDS011;37283;49.760;8.648;2022-08-19T14:07:53;4.07;;;2.77;;
51216;SDS011;37283;49.760;8.648;2022-08-19T14:10:21;5.10;;;2.70;;
51216;SDS011;37283;49.760;8.648;2022-08-19T14:12:47;3.65;;;2.80;;
51216;SDS011;37283;49.760;8.648;2022-08-19T14:15:14;4.13;;;2.83;;
51216;SDS011;37283;49.760;8.648;2022-08-19T14:17:42;4.57;;;2.45;;
51216;SDS011;37283;49.760;8.648;2022-08-19T14:20:10;4.40;;;2.50;;
51216;SDS011;37283;49.760;8.648;2022-08-19T14:22:43;4.10;;;2.60;;
51216;SDS011;37283;49.760;8.648;2022-08-19T14:25:12;3.95;;;2.80;;
51216;SDS011;37283;49.760;8.648;2022-08-19T14:27:44;3.05;;;2.75;;
51216;SDS011;37283;49.760;8.648;2022-08-19T14:30:12;3.72;;;2.65;;
51216;SDS011;37283;49.760;8.648;2022-08-19T14:32:40;3.13;;;2.75;;
51216;SDS011;37283;49.760;8.648;2022-08-19T14:37:38;3.72;;;2.55;;
51216;SDS011;37283;49.760;8.648;2022-08-19T14:40:12;5.25;;;3.42;;
51216;SDS011;37283;49.760;8.648;2022-08-19T14:42:40;3.33;;;3.03;;
51216;SDS011;37283;49.760;8.648;2022-08-19T14:45:07;3.38;;;3.08;;
51216;SDS011;37283;49.760;8.648;2022-08-19T14:47:34;4.63;;;2.75;;
51216;SDS011;37283;49.760;8.648;2022-08-19T14:50:06;4.60;;;2.58;;
51216;SDS011;37283;49.760;8.648;2022-08-19T14:52:35;3.30;;;2.67;;
51216;SDS011;37283;49.760;8.648;2022-08-19T14:55:03;3.45;;;2.47;;
51216;SDS011;37283;49.760;8.648;2022-08-19T14:57:32;3.85;;;2.50;;
51216;SDS011;37283;49.760;8.648;2022-08-19T14:59:59;4.57;;;2.95;;
51216;SDS011;37283;49.760;8.648;2022-08-19T15:02:26;3.85;;;2.88;;
51216;SDS011;37283;49.760;8.648;2022-08-19T15:05:00;3.50;;;2.90;;
51216;SDS011;37283;49.760;8.648;2022-08-19T15:07:28;3.60;;;3.30;;
51216;SDS011;37283;49.760;8.648;2022-08-19T15:09:55;4.20;;;3.17;;